Decoded Metar for KANK ( in ) (IATA:) | Meteo·Mobile Aviation Weather
aviador You're here:

KANK Decoded Metar

in
Report Time2019-09-17 00:55:00
UTC Time2019-09-17 01:13:28
Flight Rules vfr VFR
Wind210° at 14 Gusting to 18 kt
W.Decomp.*RWY 24: 12.1 kt HW 7 kt LCW
Visibility9999 m
Phenomena:N/A
Clouds:N/A
Expected CloudBase > 7,200 ft AGL from Temp-Dew spread
CeilingNone
Temp22°C
Dew Point04°C (31% RH)
AAT15.7°C
QNH1023 hPa
Raw Report
KANK 170055Z AUTO 21014G18KT 10SM CLR 22/04 A3020 RMK AO1
T02160043=

Extra information for KANK:More info

Social comments